sensor_id;sensor_type;location;lat;lon;timestamp;P1;durP1;ratioP1;P2;durP2;ratioP2
17175;SDS011;8703;48.996;9.594;2023-07-02T00:02:17;4.80;;;3.13;;
17175;SDS011;8703;48.996;9.594;2023-07-02T00:04:44;4.07;;;3.45;;
17175;SDS011;8703;48.996;9.594;2023-07-02T00:07:12;4.03;;;3.10;;
17175;SDS011;8703;48.996;9.594;2023-07-02T00:09:40;3.88;;;3.58;;
17175;SDS011;8703;48.996;9.594;2023-07-02T00:12:07;5.65;;;3.42;;
17175;SDS011;8703;48.996;9.594;2023-07-02T00:14:35;4.38;;;3.35;;
17175;SDS011;8703;48.996;9.594;2023-07-02T00:17:04;4.03;;;3.67;;
17175;SDS011;8703;48.996;9.594;2023-07-02T00:19:31;5.07;;;3.60;;
17175;SDS011;8703;48.996;9.594;2023-07-02T00:21:59;3.78;;;3.38;;
17175;SDS011;8703;48.996;9.594;2023-07-02T00:24:27;3.85;;;3.50;;
17175;SDS011;8703;48.996;9.594;2023-07-02T00:26:54;5.32;;;3.83;;
17175;SDS011;8703;48.996;9.594;2023-07-02T00:29:22;4.50;;;3.60;;
17175;SDS011;8703;48.996;9.594;2023-07-02T00:31:49;3.90;;;3.50;;
17175;SDS011;8703;48.996;9.594;2023-07-02T00:34:18;4.07;;;3.28;;
17175;SDS011;8703;48.996;9.594;2023-07-02T00:36:46;3.63;;;3.33;;
17175;SDS011;8703;48.996;9.594;2023-07-02T00:39:13;3.63;;;3.28;;
17175;SDS011;8703;48.996;9.594;2023-07-02T00:41:42;5.60;;;3.72;;
17175;SDS011;8703;48.996;9.594;2023-07-02T00:44:11;4.10;;;3.47;;
17175;SDS011;8703;48.996;9.594;2023-07-02T00:46:38;4.15;;;3.75;;
17175;SDS011;8703;48.996;9.594;2023-07-02T00:49:06;6.75;;;3.60;;
17175;SDS011;8703;48.996;9.594;2023-07-02T00:51:36;5.03;;;3.50;;
17175;SDS011;8703;48.996;9.594;2023-07-02T00:54:03;3.78;;;3.28;;
17175;SDS011;8703;48.996;9.594;2023-07-02T00:56:31;4.63;;;3.50;;
17175;SDS011;8703;48.996;9.594;2023-07-02T00:58:58;4.00;;;3.60;;
17175;SDS011;8703;48.996;9.594;2023-07-02T01:01:26;4.20;;;3.80;;
17175;SDS011;8703;48.996;9.594;2023-07-02T01:03:56;5.57;;;3.90;;
17175;SDS011;8703;48.996;9.594;2023-07-02T01:06:25;4.68;;;3.83;;
17175;SDS011;8703;48.996;9.594;2023-07-02T01:08:55;4.65;;;3.95;;
17175;SDS011;8703;48.996;9.594;2023-07-02T01:11:25;4.30;;;3.55;;
17175;SDS011;8703;48.996;9.594;2023-07-02T01:13:55;6.70;;;4.13;;
17175;SDS011;8703;48.996;9.594;2023-07-02T01:16:26;3.95;;;3.55;;
17175;SDS011;8703;48.996;9.594;2023-07-02T01:18:56;5.65;;;4.05;;
17175;SDS011;8703;48.996;9.594;2023-07-02T01:21:25;4.80;;;3.88;;
17175;SDS011;8703;48.996;9.594;2023-07-02T01:23:52;5.72;;;3.60;;
17175;SDS011;8703;48.996;9.594;2023-07-02T01:26:20;3.95;;;3.22;;
17175;SDS011;8703;48.996;9.594;2023-07-02T01:28:47;5.75;;;3.92;;
17175;SDS011;8703;48.996;9.594;2023-07-02T01:31:15;5.50;;;4.45;;
17175;SDS011;8703;48.996;9.594;2023-07-02T01:33:43;5.32;;;4.47;;
17175;SDS011;8703;48.996;9.594;2023-07-02T01:36:10;4.60;;;3.83;;
17175;SDS011;8703;48.996;9.594;2023-07-02T01:38:39;4.57;;;3.72;;
17175;SDS011;8703;48.996;9.594;2023-07-02T01:41:06;5.82;;;3.92;;
17175;SDS011;8703;48.996;9.594;2023-07-02T01:43:34;5.28;;;4.43;;
17175;SDS011;8703;48.996;9.594;2023-07-02T01:46:01;7.00;;;4.00;;
17175;SDS011;8703;48.996;9.594;2023-07-02T01:48:28;4.88;;;4.00;;
17175;SDS011;8703;48.996;9.594;2023-07-02T01:50:56;7.00;;;3.88;;
17175;SDS011;8703;48.996;9.594;2023-07-02T01:53:23;5.15;;;4.10;;
17175;SDS011;8703;48.996;9.594;2023-07-02T01:55:52;5.70;;;4.40;;
17175;SDS011;8703;48.996;9.594;2023-07-02T01:58:19;5.10;;;4.18;;
17175;SDS011;8703;48.996;9.594;2023-07-02T02:00:47;5.10;;;3.97;;
17175;SDS011;8703;48.996;9.594;2023-07-02T02:03:14;5.50;;;4.07;;
17175;SDS011;8703;48.996;9.594;2023-07-02T02:05:41;5.15;;;3.70;;
17175;SDS011;8703;48.996;9.594;2023-07-02T02:08:09;4.18;;;3.78;;
17175;SDS011;8703;48.996;9.594;2023-07-02T02:10:36;5.07;;;3.90;;
17175;SDS011;8703;48.996;9.594;2023-07-02T02:13:05;5.78;;;3.80;;
17175;SDS011;8703;48.996;9.594;2023-07-02T02:15:33;4.20;;;3.58;;
17175;SDS011;8703;48.996;9.594;2023-07-02T02:18:00;4.45;;;3.67;;
17175;SDS011;8703;48.996;9.594;2023-07-02T02:20:27;4.78;;;3.80;;
17175;SDS011;8703;48.996;9.594;2023-07-02T02:22:55;5.43;;;3.90;;
17175;SDS011;8703;48.996;9.594;2023-07-02T02:25:22;6.00;;;3.88;;
17175;SDS011;8703;48.996;9.594;2023-07-02T02:27:50;4.50;;;4.10;;
17175;SDS011;8703;48.996;9.594;2023-07-02T02:30:18;4.40;;;4.00;;
17175;SDS011;8703;48.996;9.594;2023-07-02T02:32:46;4.63;;;4.13;;
17175;SDS011;8703;48.996;9.594;2023-07-02T02:35:14;5.07;;;4.40;;
17175;SDS011;8703;48.996;9.594;2023-07-02T02:37:41;4.60;;;3.67;;
17175;SDS011;8703;48.996;9.594;2023-07-02T02:40:09;4.80;;;4.30;;
17175;SDS011;8703;48.996;9.594;2023-07-02T02:42:38;4.22;;;3.80;;
17175;SDS011;8703;48.996;9.594;2023-07-02T02:45:06;4.25;;;3.72;;
17175;SDS011;8703;48.996;9.594;2023-07-02T02:47:35;6.57;;;4.18;;
17175;SDS011;8703;48.996;9.594;2023-07-02T02:50:02;4.22;;;3.50;;
17175;SDS011;8703;48.996;9.594;2023-07-02T02:52:31;5.43;;;4.10;;
17175;SDS011;8703;48.996;9.594;2023-07-02T02:54:58;4.30;;;3.72;;
17175;SDS011;8703;48.996;9.594;2023-07-02T02:57:26;4.05;;;3.65;;
17175;SDS011;8703;48.996;9.594;2023-07-02T02:59:53;5.38;;;4.00;;
17175;SDS011;8703;48.996;9.594;2023-07-02T03:02:20;4.55;;;3.97;;
17175;SDS011;8703;48.996;9.594;2023-07-02T03:04:49;7.22;;;4.28;;
17175;SDS011;8703;48.996;9.594;2023-07-02T03:07:16;6.20;;;4.28;;
17175;SDS011;8703;48.996;9.594;2023-07-02T03:09:45;5.53;;;4.25;;
17175;SDS011;8703;48.996;9.594;2023-07-02T03:12:12;5.43;;;4.20;;
17175;SDS011;8703;48.996;9.594;2023-07-02T03:14:40;5.60;;;3.80;;
17175;SDS011;8703;48.996;9.594;2023-07-02T03:17:07;4.93;;;3.90;;
17175;SDS011;8703;48.996;9.594;2023-07-02T03:19:34;6.95;;;4.22;;
17175;SDS011;8703;48.996;9.594;2023-07-02T03:22:03;7.35;;;4.25;;
17175;SDS011;8703;48.996;9.594;2023-07-02T03:24:31;4.80;;;4.20;;
17175;SDS011;8703;48.996;9.594;2023-07-02T03:26:58;5.07;;;4.30;;
17175;SDS011;8703;48.996;9.594;2023-07-02T03:29:26;8.13;;;4.30;;
17175;SDS011;8703;48.996;9.594;2023-07-02T03:31:53;4.35;;;3.67;;
17175;SDS011;8703;48.996;9.594;2023-07-02T03:34:21;7.93;;;4.60;;
17175;SDS011;8703;48.996;9.594;2023-07-02T03:36:48;8.98;;;4.38;;
17175;SDS011;8703;48.996;9.594;2023-07-02T03:39:17;8.85;;;4.50;;
17175;SDS011;8703;48.996;9.594;2023-07-02T03:41:45;7.25;;;4.57;;
17175;SDS011;8703;48.996;9.594;2023-07-02T03:44:12;8.77;;;4.65;;
17175;SDS011;8703;48.996;9.594;2023-07-02T03:46:39;6.68;;;4.60;;
17175;SDS011;8703;48.996;9.594;2023-07-02T03:49:07;7.13;;;4.53;;
17175;SDS011;8703;48.996;9.594;2023-07-02T03:51:34;7.30;;;4.80;;
17175;SDS011;8703;48.996;9.594;2023-07-02T03:54:02;9.98;;;5.40;;
17175;SDS011;8703;48.996;9.594;2023-07-02T03:56:30;6.88;;;4.55;;
17175;SDS011;8703;48.996;9.594;2023-07-02T03:58:58;9.93;;;4.75;;
17175;SDS011;8703;48.996;9.594;2023-07-02T04:01:25;8.45;;;5.03;;
17175;SDS011;8703;48.996;9.594;2023-07-02T04:03:53;10.10;;;4.93;;
17175;SDS011;8703;48.996;9.594;2023-07-02T04:06:21;11.05;;;5.45;;
17175;SDS011;8703;48.996;9.594;2023-07-02T04:08:48;8.38;;;4.90;;
17175;SDS011;8703;48.996;9.594;2023-07-02T04:11:15;9.95;;;5.10;;
17175;SDS011;8703;48.996;9.594;2023-07-02T04:13:44;9.20;;;4.75;;
17175;SDS011;8703;48.996;9.594;2023-07-02T04:16:12;7.70;;;5.07;;
17175;SDS011;8703;48.996;9.594;2023-07-02T04:18:39;8.60;;;5.25;;
17175;SDS011;8703;48.996;9.594;2023-07-02T04:21:07;7.10;;;4.78;;
17175;SDS011;8703;48.996;9.594;2023-07-02T04:23:34;11.05;;;4.93;;
17175;SDS011;8703;48.996;9.594;2023-07-02T04:26:01;9.32;;;5.30;;
17175;SDS011;8703;48.996;9.594;2023-07-02T04:28:29;9.23;;;5.22;;
17175;SDS011;8703;48.996;9.594;2023-07-02T04:30:57;7.75;;;4.57;;
17175;SDS011;8703;48.996;9.594;2023-07-02T04:33:25;8.40;;;5.03;;
17175;SDS011;8703;48.996;9.594;2023-07-02T04:35:57;8.30;;;5.00;;
17175;SDS011;8703;48.996;9.594;2023-07-02T04:38:24;10.18;;;5.18;;
17175;SDS011;8703;48.996;9.594;2023-07-02T04:40:53;8.82;;;4.93;;
17175;SDS011;8703;48.996;9.594;2023-07-02T04:43:22;10.55;;;5.50;;
17175;SDS011;8703;48.996;9.594;2023-07-02T04:45:52;9.10;;;5.28;;
17175;SDS011;8703;48.996;9.594;2023-07-02T04:48:21;8.10;;;4.85;;
17175;SDS011;8703;48.996;9.594;2023-07-02T04:50:49;10.00;;;5.53;;
17175;SDS011;8703;48.996;9.594;2023-07-02T04:53:16;11.50;;;5.70;;
17175;SDS011;8703;48.996;9.594;2023-07-02T04:55:44;10.48;;;5.97;;
17175;SDS011;8703;48.996;9.594;2023-07-02T04:58:11;14.13;;;5.85;;
17175;SDS011;8703;48.996;9.594;2023-07-02T05:00:38;9.10;;;5.72;;
17175;SDS011;8703;48.996;9.594;2023-07-02T05:03:06;10.27;;;6.45;;
17175;SDS011;8703;48.996;9.594;2023-07-02T05:05:35;9.95;;;5.85;;
17175;SDS011;8703;48.996;9.594;2023-07-02T05:08:02;9.27;;;6.00;;
17175;SDS011;8703;48.996;9.594;2023-07-02T05:10:30;10.02;;;6.10;;
17175;SDS011;8703;48.996;9.594;2023-07-02T05:12:57;10.20;;;5.70;;
17175;SDS011;8703;48.996;9.594;2023-07-02T05:15:25;12.52;;;6.32;;
17175;SDS011;8703;48.996;9.594;2023-07-02T05:17:52;12.98;;;6.22;;
17175;SDS011;8703;48.996;9.594;2023-07-02T05:20:19;11.90;;;5.97;;
17175;SDS011;8703;48.996;9.594;2023-07-02T05:22:48;11.32;;;6.00;;
17175;SDS011;8703;48.996;9.594;2023-07-02T05:25:15;9.63;;;6.07;;
17175;SDS011;8703;48.996;9.594;2023-07-02T05:27:43;9.80;;;6.00;;
17175;SDS011;8703;48.996;9.594;2023-07-02T05:30:11;11.55;;;6.20;;
17175;SDS011;8703;48.996;9.594;2023-07-02T05:32:39;13.32;;;6.03;;
17175;SDS011;8703;48.996;9.594;2023-07-02T05:35:06;10.90;;;6.07;;
17175;SDS011;8703;48.996;9.594;2023-07-02T05:37:34;12.85;;;6.68;;
17175;SDS011;8703;48.996;9.594;2023-07-02T05:40:03;10.45;;;5.95;;
17175;SDS011;8703;48.996;9.594;2023-07-02T05:42:31;11.00;;;5.55;;
17175;SDS011;8703;48.996;9.594;2023-07-02T05:44:58;10.57;;;6.30;;
17175;SDS011;8703;48.996;9.594;2023-07-02T05:47:25;11.60;;;5.95;;
17175;SDS011;8703;48.996;9.594;2023-07-02T05:49:53;10.75;;;5.60;;
17175;SDS011;8703;48.996;9.594;2023-07-02T05:52:20;7.95;;;5.70;;
17175;SDS011;8703;48.996;9.594;2023-07-02T05:54:47;8.43;;;5.63;;
17175;SDS011;8703;48.996;9.594;2023-07-02T05:57:16;9.48;;;5.65;;
17175;SDS011;8703;48.996;9.594;2023-07-02T05:59:43;11.80;;;5.93;;
17175;SDS011;8703;48.996;9.594;2023-07-02T06:02:11;8.55;;;5.90;;
17175;SDS011;8703;48.996;9.594;2023-07-02T06:04:38;10.52;;;5.40;;
17175;SDS011;8703;48.996;9.594;2023-07-02T06:07:05;11.55;;;5.18;;
17175;SDS011;8703;48.996;9.594;2023-07-02T06:09:33;8.93;;;5.50;;
17175;SDS011;8703;48.996;9.594;2023-07-02T06:12:00;8.48;;;4.85;;
17175;SDS011;8703;48.996;9.594;2023-07-02T06:14:29;11.35;;;5.38;;
17175;SDS011;8703;48.996;9.594;2023-07-02T06:16:56;10.20;;;5.40;;
17175;SDS011;8703;48.996;9.594;2023-07-02T06:19:24;9.02;;;4.35;;
17175;SDS011;8703;48.996;9.594;2023-07-02T06:21:51;8.18;;;4.47;;
17175;SDS011;8703;48.996;9.594;2023-07-02T06:24:19;9.75;;;5.00;;
17175;SDS011;8703;48.996;9.594;2023-07-02T06:26:46;9.80;;;4.95;;
17175;SDS011;8703;48.996;9.594;2023-07-02T06:29:13;6.68;;;4.63;;
17175;SDS011;8703;48.996;9.594;2023-07-02T06:31:42;8.52;;;4.75;;
17175;SDS011;8703;48.996;9.594;2023-07-02T06:34:09;8.30;;;5.05;;
17175;SDS011;8703;48.996;9.594;2023-07-02T06:36:37;11.18;;;5.40;;
17175;SDS011;8703;48.996;9.594;2023-07-02T06:39:04;7.10;;;5.10;;
17175;SDS011;8703;48.996;9.594;2023-07-02T06:41:32;10.55;;;5.68;;
17175;SDS011;8703;48.996;9.594;2023-07-02T06:44:00;8.98;;;5.40;;
17175;SDS011;8703;48.996;9.594;2023-07-02T06:46:30;10.50;;;5.20;;
17175;SDS011;8703;48.996;9.594;2023-07-02T06:48:59;11.18;;;5.53;;
17175;SDS011;8703;48.996;9.594;2023-07-02T06:51:27;12.20;;;5.68;;
17175;SDS011;8703;48.996;9.594;2023-07-02T06:53:54;9.85;;;5.88;;
17175;SDS011;8703;48.996;9.594;2023-07-02T06:56:21;8.93;;;5.53;;
17175;SDS011;8703;48.996;9.594;2023-07-02T06:58:49;12.13;;;6.03;;
17175;SDS011;8703;48.996;9.594;2023-07-02T07:01:17;10.05;;;6.15;;
17175;SDS011;8703;48.996;9.594;2023-07-02T07:03:44;11.10;;;6.22;;
17175;SDS011;8703;48.996;9.594;2023-07-02T07:06:14;11.18;;;6.07;;
17175;SDS011;8703;48.996;9.594;2023-07-02T07:08:52;11.18;;;6.22;;
17175;SDS011;8703;48.996;9.594;2023-07-02T07:11:20;10.95;;;6.35;;
17175;SDS011;8703;48.996;9.594;2023-07-02T07:13:47;11.48;;;6.55;;
17175;SDS011;8703;48.996;9.594;2023-07-02T07:16:15;13.40;;;7.03;;
17175;SDS011;8703;48.996;9.594;2023-07-02T07:18:43;14.55;;;6.57;;
17175;SDS011;8703;48.996;9.594;2023-07-02T07:21:11;11.32;;;6.75;;
17175;SDS011;8703;48.996;9.594;2023-07-02T07:23:40;11.35;;;6.25;;
17175;SDS011;8703;48.996;9.594;2023-07-02T07:26:07;11.43;;;6.68;;
17175;SDS011;8703;48.996;9.594;2023-07-02T07:28:34;13.18;;;6.90;;
17175;SDS011;8703;48.996;9.594;2023-07-02T07:31:02;10.85;;;6.43;;
17175;SDS011;8703;48.996;9.594;2023-07-02T07:33:29;12.98;;;6.70;;
17175;SDS011;8703;48.996;9.594;2023-07-02T07:35:57;10.18;;;6.57;;
17175;SDS011;8703;48.996;9.594;2023-07-02T07:38:26;12.20;;;7.15;;
17175;SDS011;8703;48.996;9.594;2023-07-02T07:40:53;12.52;;;6.53;;
17175;SDS011;8703;48.996;9.594;2023-07-02T07:43:21;11.57;;;6.10;;
17175;SDS011;8703;48.996;9.594;2023-07-02T07:45:48;14.77;;;7.00;;
17175;SDS011;8703;48.996;9.594;2023-07-02T07:48:15;12.57;;;6.70;;
17175;SDS011;8703;48.996;9.594;2023-07-02T07:50:43;10.85;;;6.57;;
17175;SDS011;8703;48.996;9.594;2023-07-02T07:53:10;10.88;;;6.47;;
17175;SDS011;8703;48.996;9.594;2023-07-02T07:55:39;12.80;;;7.38;;
17175;SDS011;8703;48.996;9.594;2023-07-02T07:58:06;11.05;;;6.97;;
17175;SDS011;8703;48.996;9.594;2023-07-02T08:00:34;10.57;;;6.80;;
17175;SDS011;8703;48.996;9.594;2023-07-02T08:03:02;12.43;;;7.72;;
17175;SDS011;8703;48.996;9.594;2023-07-02T08:05:30;14.02;;;8.30;;
17175;SDS011;8703;48.996;9.594;2023-07-02T08:07:57;15.88;;;8.15;;
17175;SDS011;8703;48.996;9.594;2023-07-02T08:10:24;15.65;;;7.95;;
17175;SDS011;8703;48.996;9.594;2023-07-02T08:12:54;15.43;;;9.75;;
17175;SDS011;8703;48.996;9.594;2023-07-02T08:15:21;14.40;;;8.77;;
17175;SDS011;8703;48.996;9.594;2023-07-02T08:17:49;14.77;;;8.63;;
17175;SDS011;8703;48.996;9.594;2023-07-02T08:20:19;14.95;;;8.35;;
17175;SDS011;8703;48.996;9.594;2023-07-02T08:22:47;15.27;;;9.05;;
17175;SDS011;8703;48.996;9.594;2023-07-02T08:25:16;16.27;;;8.75;;
17175;SDS011;8703;48.996;9.594;2023-07-02T08:27:43;18.50;;;9.25;;
17175;SDS011;8703;48.996;9.594;2023-07-02T08:30:12;15.27;;;9.38;;
17175;SDS011;8703;48.996;9.594;2023-07-02T08:32:40;13.82;;;8.23;;
17175;SDS011;8703;48.996;9.594;2023-07-02T08:35:08;15.60;;;9.75;;
17175;SDS011;8703;48.996;9.594;2023-07-02T08:37:35;17.23;;;9.13;;
17175;SDS011;8703;48.996;9.594;2023-07-02T08:40:02;13.93;;;8.63;;
17175;SDS011;8703;48.996;9.594;2023-07-02T08:42:31;16.30;;;9.63;;
17175;SDS011;8703;48.996;9.594;2023-07-02T08:44:59;13.50;;;9.50;;
17175;SDS011;8703;48.996;9.594;2023-07-02T08:47:28;14.70;;;9.20;;
17175;SDS011;8703;48.996;9.594;2023-07-02T08:49:55;13.35;;;8.80;;
17175;SDS011;8703;48.996;9.594;2023-07-02T08:52:22;13.45;;;8.52;;
17175;SDS011;8703;48.996;9.594;2023-07-02T08:54:50;14.27;;;9.35;;
17175;SDS011;8703;48.996;9.594;2023-07-02T08:57:18;15.57;;;9.38;;
17175;SDS011;8703;48.996;9.594;2023-07-02T08:59:46;15.40;;;10.00;;
17175;SDS011;8703;48.996;9.594;2023-07-02T09:02:16;16.80;;;10.48;;
17175;SDS011;8703;48.996;9.594;2023-07-02T09:04:45;17.88;;;10.20;;
17175;SDS011;8703;48.996;9.594;2023-07-02T09:07:12;20.73;;;10.45;;
17175;SDS011;8703;48.996;9.594;2023-07-02T09:09:46;15.95;;;10.38;;
17175;SDS011;8703;48.996;9.594;2023-07-02T09:12:22;18.65;;;10.43;;
17175;SDS011;8703;48.996;9.594;2023-07-02T09:14:54;19.35;;;10.90;;
17175;SDS011;8703;48.996;9.594;2023-07-02T09:17:26;19.60;;;11.15;;
17175;SDS011;8703;48.996;9.594;2023-07-02T09:20:03;15.52;;;11.25;;
17175;SDS011;8703;48.996;9.594;2023-07-02T09:22:33;19.80;;;11.27;;
17175;SDS011;8703;48.996;9.594;2023-07-02T09:25:01;21.25;;;11.70;;
17175;SDS011;8703;48.996;9.594;2023-07-02T09:27:35;18.45;;;11.63;;
17175;SDS011;8703;48.996;9.594;2023-07-02T09:30:07;21.08;;;11.45;;
17175;SDS011;8703;48.996;9.594;2023-07-02T09:32:36;18.23;;;11.18;;
17175;SDS011;8703;48.996;9.594;2023-07-02T09:35:05;17.40;;;11.18;;
17175;SDS011;8703;48.996;9.594;2023-07-02T09:37:33;16.88;;;11.45;;
17175;SDS011;8703;48.996;9.594;2023-07-02T09:40:00;18.55;;;12.27;;
17175;SDS011;8703;48.996;9.594;2023-07-02T09:42:30;18.83;;;11.27;;
17175;SDS011;8703;48.996;9.594;2023-07-02T09:44:58;19.23;;;11.82;;
17175;SDS011;8703;48.996;9.594;2023-07-02T09:47:27;20.95;;;11.90;;
17175;SDS011;8703;48.996;9.594;2023-07-02T09:49:57;18.73;;;12.07;;
17175;SDS011;8703;48.996;9.594;2023-07-02T09:52:29;20.10;;;12.43;;
17175;SDS011;8703;48.996;9.594;2023-07-02T09:54:57;21.67;;;12.45;;
17175;SDS011;8703;48.996;9.594;2023-07-02T09:57:24;19.88;;;12.48;;
17175;SDS011;8703;48.996;9.594;2023-07-02T09:59:54;20.80;;;12.27;;
17175;SDS011;8703;48.996;9.594;2023-07-02T10:02:22;19.23;;;11.23;;
17175;SDS011;8703;48.996;9.594;2023-07-02T10:04:49;17.60;;;12.07;;
17175;SDS011;8703;48.996;9.594;2023-07-02T10:07:25;22.05;;;13.38;;
17175;SDS011;8703;48.996;9.594;2023-07-02T10:09:55;19.85;;;12.15;;
17175;SDS011;8703;48.996;9.594;2023-07-02T10:12:23;19.50;;;11.98;;
17175;SDS011;8703;48.996;9.594;2023-07-02T10:14:52;19.23;;;12.63;;
17175;SDS011;8703;48.996;9.594;2023-07-02T10:17:24;19.70;;;12.27;;
17175;SDS011;8703;48.996;9.594;2023-07-02T10:19:53;21.50;;;12.27;;
17175;SDS011;8703;48.996;9.594;2023-07-02T10:22:21;20.10;;;13.15;;
17175;SDS011;8703;48.996;9.594;2023-07-02T10:24:50;20.67;;;12.65;;
17175;SDS011;8703;48.996;9.594;2023-07-02T10:27:20;22.63;;;12.70;;
17175;SDS011;8703;48.996;9.594;2023-07-02T10:29:58;20.63;;;12.25;;
17175;SDS011;8703;48.996;9.594;2023-07-02T10:32:26;21.20;;;13.27;;
17175;SDS011;8703;48.996;9.594;2023-07-02T10:34:54;19.88;;;13.15;;
17175;SDS011;8703;48.996;9.594;2023-07-02T10:37:23;20.13;;;13.13;;
17175;SDS011;8703;48.996;9.594;2023-07-02T10:39:51;20.83;;;13.07;;
17175;SDS011;8703;48.996;9.594;2023-07-02T10:42:18;20.73;;;13.43;;
17175;SDS011;8703;48.996;9.594;2023-07-02T10:44:47;19.13;;;13.10;;
17175;SDS011;8703;48.996;9.594;2023-07-02T10:47:16;19.52;;;12.65;;
17175;SDS011;8703;48.996;9.594;2023-07-02T10:49:43;21.60;;;12.93;;
17175;SDS011;8703;48.996;9.594;2023-07-02T10:52:10;22.20;;;13.40;;
17175;SDS011;8703;48.996;9.594;2023-07-02T10:54:38;21.15;;;13.82;;
17175;SDS011;8703;48.996;9.594;2023-07-02T10:57:07;19.02;;;13.20;;
17175;SDS011;8703;48.996;9.594;2023-07-02T10:59:35;20.58;;;12.80;;
17175;SDS011;8703;48.996;9.594;2023-07-02T11:02:03;21.25;;;13.13;;
17175;SDS011;8703;48.996;9.594;2023-07-02T11:04:31;18.70;;;12.38;;
17175;SDS011;8703;48.996;9.594;2023-07-02T11:06:59;17.98;;;12.43;;
17175;SDS011;8703;48.996;9.594;2023-07-02T11:09:27;20.13;;;12.93;;
17175;SDS011;8703;48.996;9.594;2023-07-02T11:11:54;19.05;;;12.75;;
17175;SDS011;8703;48.996;9.594;2023-07-02T11:14:26;21.42;;;13.18;;
17175;SDS011;8703;48.996;9.594;2023-07-02T11:16:58;19.20;;;12.93;;
17175;SDS011;8703;48.996;9.594;2023-07-02T11:19:28;19.90;;;13.85;;
17175;SDS011;8703;48.996;9.594;2023-07-02T11:21:56;16.98;;;11.52;;
17175;SDS011;8703;48.996;9.594;2023-07-02T11:24:31;20.52;;;11.45;;
17175;SDS011;8703;48.996;9.594;2023-07-02T11:26:59;17.65;;;12.27;;
17175;SDS011;8703;48.996;9.594;2023-07-02T11:29:28;18.45;;;12.30;;
17175;SDS011;8703;48.996;9.594;2023-07-02T11:32:05;19.45;;;12.80;;
17175;SDS011;8703;48.996;9.594;2023-07-02T11:34:34;18.52;;;12.20;;
17175;SDS011;8703;48.996;9.594;2023-07-02T11:37:01;19.17;;;12.88;;
17175;SDS011;8703;48.996;9.594;2023-07-02T11:39:29;19.10;;;12.75;;
17175;SDS011;8703;48.996;9.594;2023-07-02T11:41:56;16.88;;;11.60;;
17175;SDS011;8703;48.996;9.594;2023-07-02T11:44:24;17.65;;;11.98;;
17175;SDS011;8703;48.996;9.594;2023-07-02T11:46:51;19.17;;;12.35;;
17175;SDS011;8703;48.996;9.594;2023-07-02T11:49:23;20.13;;;12.30;;
17175;SDS011;8703;48.996;9.594;2023-07-02T11:51:50;19.15;;;12.38;;
17175;SDS011;8703;48.996;9.594;2023-07-02T11:54:18;17.48;;;12.52;;
17175;SDS011;8703;48.996;9.594;2023-07-02T11:56:45;16.83;;;12.48;;
17175;SDS011;8703;48.996;9.594;2023-07-02T11:59:12;17.88;;;12.15;;
17175;SDS011;8703;48.996;9.594;2023-07-02T12:01:40;18.23;;;12.38;;
17175;SDS011;8703;48.996;9.594;2023-07-02T12:04:09;16.60;;;11.45;;
17175;SDS011;8703;48.996;9.594;2023-07-02T12:06:39;19.08;;;12.70;;
17175;SDS011;8703;48.996;9.594;2023-07-02T12:09:06;16.15;;;11.98;;
17175;SDS011;8703;48.996;9.594;2023-07-02T12:11:34;20.30;;;13.00;;
17175;SDS011;8703;48.996;9.594;2023-07-02T12:14:01;16.77;;;12.23;;
17175;SDS011;8703;48.996;9.594;2023-07-02T12:16:29;17.00;;;11.98;;
17175;SDS011;8703;48.996;9.594;2023-07-02T12:18:56;17.27;;;13.00;;
17175;SDS011;8703;48.996;9.594;2023-07-02T12:21:23;17.15;;;12.15;;
17175;SDS011;8703;48.996;9.594;2023-07-02T12:23:52;18.83;;;13.55;;
17175;SDS011;8703;48.996;9.594;2023-07-02T12:26:19;17.00;;;13.23;;
17175;SDS011;8703;48.996;9.594;2023-07-02T12:28:47;18.67;;;13.07;;
17175;SDS011;8703;48.996;9.594;2023-07-02T12:31:14;18.98;;;12.93;;
17175;SDS011;8703;48.996;9.594;2023-07-02T12:33:41;19.35;;;13.13;;
17175;SDS011;8703;48.996;9.594;2023-07-02T12:36:09;18.27;;;12.85;;
17175;SDS011;8703;48.996;9.594;2023-07-02T12:38:37;19.35;;;13.10;;
17175;SDS011;8703;48.996;9.594;2023-07-02T12:41:06;17.98;;;12.15;;
17175;SDS011;8703;48.996;9.594;2023-07-02T12:43:33;18.58;;;13.20;;
17175;SDS011;8703;48.996;9.594;2023-07-02T12:46:00;17.85;;;14.00;;
17175;SDS011;8703;48.996;9.594;2023-07-02T12:48:28;17.83;;;11.63;;
17175;SDS011;8703;48.996;9.594;2023-07-02T12:50:55;18.33;;;14.15;;
17175;SDS011;8703;48.996;9.594;2023-07-02T12:53:23;17.52;;;10.10;;
17175;SDS011;8703;48.996;9.594;2023-07-02T12:55:51;17.45;;;14.25;;
17175;SDS011;8703;48.996;9.594;2023-07-02T12:58:20;18.30;;;13.10;;
17175;SDS011;8703;48.996;9.594;2023-07-02T13:00:47;17.83;;;14.45;;
17175;SDS011;8703;48.996;9.594;2023-07-02T13:03:16;20.50;;;16.20;;
17175;SDS011;8703;48.996;9.594;2023-07-02T13:05:44;17.50;;;14.52;;
17175;SDS011;8703;48.996;9.594;2023-07-02T13:08:11;17.88;;;13.23;;
17175;SDS011;8703;48.996;9.594;2023-07-02T13:10:39;17.70;;;13.50;;
17175;SDS011;8703;48.996;9.594;2023-07-02T13:13:06;17.73;;;14.57;;
17175;SDS011;8703;48.996;9.594;2023-07-02T13:15:34;18.95;;;14.65;;
17175;SDS011;8703;48.996;9.594;2023-07-02T13:18:03;20.85;;;17.33;;
17175;SDS011;8703;48.996;9.594;2023-07-02T13:20:30;18.52;;;14.50;;
17175;SDS011;8703;48.996;9.594;2023-07-02T13:22:58;22.48;;;19.20;;
17175;SDS011;8703;48.996;9.594;2023-07-02T13:25:25;16.17;;;11.45;;
17175;SDS011;8703;48.996;9.594;2023-07-02T13:27:52;17.88;;;14.48;;
17175;SDS011;8703;48.996;9.594;2023-07-02T13:30:20;18.48;;;14.13;;
17175;SDS011;8703;48.996;9.594;2023-07-02T13:32:49;21.77;;;19.50;;
17175;SDS011;8703;48.996;9.594;2023-07-02T13:35:16;16.95;;;14.20;;
17175;SDS011;8703;48.996;9.594;2023-07-02T13:37:43;20.10;;;15.65;;
17175;SDS011;8703;48.996;9.594;2023-07-02T13:40:11;22.48;;;20.23;;
17175;SDS011;8703;48.996;9.594;2023-07-02T13:42:40;18.13;;;13.02;;
17175;SDS011;8703;48.996;9.594;2023-07-02T13:45:08;20.63;;;15.88;;
17175;SDS011;8703;48.996;9.594;2023-07-02T13:47:35;18.73;;;15.93;;
17175;SDS011;8703;48.996;9.594;2023-07-02T13:50:05;20.42;;;17.63;;
17175;SDS011;8703;48.996;9.594;2023-07-02T13:52:32;17.58;;;15.55;;
17175;SDS011;8703;48.996;9.594;2023-07-02T13:55:00;17.55;;;14.70;;
17175;SDS011;8703;48.996;9.594;2023-07-02T13:57:27;21.80;;;19.55;;
17175;SDS011;8703;48.996;9.594;2023-07-02T13:59:56;23.67;;;21.42;;
17175;SDS011;8703;48.996;9.594;2023-07-02T14:02:23;18.13;;;13.63;;
17175;SDS011;8703;48.996;9.594;2023-07-02T14:04:50;17.02;;;14.25;;
17175;SDS011;8703;48.996;9.594;2023-07-02T14:07:18;27.55;;;24.77;;
17175;SDS011;8703;48.996;9.594;2023-07-02T14:09:46;23.88;;;21.17;;
17175;SDS011;8703;48.996;9.594;2023-07-02T14:12:13;26.38;;;24.08;;
17175;SDS011;8703;48.996;9.594;2023-07-02T14:14:40;25.70;;;23.27;;
17175;SDS011;8703;48.996;9.594;2023-07-02T14:17:09;27.63;;;25.23;;
17175;SDS011;8703;48.996;9.594;2023-07-02T14:19:36;22.33;;;20.08;;
17175;SDS011;8703;48.996;9.594;2023-07-02T14:22:04;32.92;;;30.15;;
17175;SDS011;8703;48.996;9.594;2023-07-02T14:24:31;25.50;;;23.00;;
17175;SDS011;8703;48.996;9.594;2023-07-02T14:26:59;27.92;;;25.33;;
17175;SDS011;8703;48.996;9.594;2023-07-02T14:29:27;29.05;;;26.35;;
17175;SDS011;8703;48.996;9.594;2023-07-02T14:31:54;30.58;;;27.83;;
17175;SDS011;8703;48.996;9.594;2023-07-02T14:34:23;33.55;;;30.73;;
17175;SDS011;8703;48.996;9.594;2023-07-02T14:36:50;36.40;;;33.55;;
17175;SDS011;8703;48.996;9.594;2023-07-02T14:39:18;30.35;;;27.90;;
17175;SDS011;8703;48.996;9.594;2023-07-02T14:41:45;27.73;;;25.45;;
17175;SDS011;8703;48.996;9.594;2023-07-02T14:44:12;24.83;;;22.58;;
17175;SDS011;8703;48.996;9.594;2023-07-02T14:46:40;24.50;;;22.27;;
17175;SDS011;8703;48.996;9.594;2023-07-02T14:49:08;28.38;;;25.88;;
17175;SDS011;8703;48.996;9.594;2023-07-02T14:51:37;22.08;;;20.02;;
17175;SDS011;8703;48.996;9.594;2023-07-02T14:54:04;25.75;;;23.25;;